sensor_id;sensor_type;location;lat;lon;timestamp;P1;durP1;ratioP1;P2;durP2;ratioP2
66523;SDS011;53350;52.210;5.160;2023-05-07T00:02:26;28.23;;;21.33;;
66523;SDS011;53350;52.210;5.160;2023-05-07T00:04:53;32.63;;;23.73;;
66523;SDS011;53350;52.210;5.160;2023-05-07T00:07:20;30.90;;;21.65;;
66523;SDS011;53350;52.210;5.160;2023-05-07T00:09:46;28.00;;;21.92;;
66523;SDS011;53350;52.210;5.160;2023-05-07T00:12:13;23.05;;;19.08;;
66523;SDS011;53350;52.210;5.160;2023-05-07T00:14:39;24.63;;;19.15;;
66523;SDS011;53350;52.210;5.160;2023-05-07T00:17:06;28.42;;;18.60;;
66523;SDS011;53350;52.210;5.160;2023-05-07T00:19:32;27.65;;;19.50;;
66523;SDS011;53350;52.210;5.160;2023-05-07T00:22:00;26.23;;;17.92;;
66523;SDS011;53350;52.210;5.160;2023-05-07T00:24:26;23.35;;;16.75;;
66523;SDS011;53350;52.210;5.160;2023-05-07T00:26:53;23.05;;;17.38;;
66523;SDS011;53350;52.210;5.160;2023-05-07T00:29:19;24.63;;;17.33;;
66523;SDS011;53350;52.210;5.160;2023-05-07T00:31:46;23.67;;;17.38;;
66523;SDS011;53350;52.210;5.160;2023-05-07T00:34:12;23.98;;;17.13;;
66523;SDS011;53350;52.210;5.160;2023-05-07T00:36:38;22.17;;;17.42;;
66523;SDS011;53350;52.210;5.160;2023-05-07T00:39:06;21.48;;;16.55;;
66523;SDS011;53350;52.210;5.160;2023-05-07T00:41:33;21.23;;;16.25;;
66523;SDS011;53350;52.210;5.160;2023-05-07T00:44:00;20.00;;;15.45;;
66523;SDS011;53350;52.210;5.160;2023-05-07T00:46:27;18.95;;;15.27;;
66523;SDS011;53350;52.210;5.160;2023-05-07T00:48:55;19.27;;;15.13;;
66523;SDS011;53350;52.210;5.160;2023-05-07T00:51:21;18.38;;;15.25;;
66523;SDS011;53350;52.210;5.160;2023-05-07T00:53:48;18.05;;;14.65;;
66523;SDS011;53350;52.210;5.160;2023-05-07T00:56:16;17.83;;;14.50;;
66523;SDS011;53350;52.210;5.160;2023-05-07T00:58:42;19.10;;;12.95;;
66523;SDS011;53350;52.210;5.160;2023-05-07T01:01:09;18.58;;;12.82;;
66523;SDS011;53350;52.210;5.160;2023-05-07T01:03:36;17.23;;;13.82;;
66523;SDS011;53350;52.210;5.160;2023-05-07T01:06:03;15.70;;;12.80;;
66523;SDS011;53350;52.210;5.160;2023-05-07T01:08:30;16.67;;;13.18;;
66523;SDS011;53350;52.210;5.160;2023-05-07T01:11:00;16.40;;;13.90;;
66523;SDS011;53350;52.210;5.160;2023-05-07T01:13:28;15.35;;;13.35;;
66523;SDS011;53350;52.210;5.160;2023-05-07T01:15:55;19.10;;;14.23;;
66523;SDS011;53350;52.210;5.160;2023-05-07T01:18:21;20.02;;;14.77;;
66523;SDS011;53350;52.210;5.160;2023-05-07T01:20:48;19.30;;;15.32;;
66523;SDS011;53350;52.210;5.160;2023-05-07T01:23:16;17.73;;;13.88;;
66523;SDS011;53350;52.210;5.160;2023-05-07T01:25:50;18.52;;;13.65;;
66523;SDS011;53350;52.210;5.160;2023-05-07T01:28:17;16.75;;;13.15;;
66523;SDS011;53350;52.210;5.160;2023-05-07T01:30:43;19.67;;;12.82;;
66523;SDS011;53350;52.210;5.160;2023-05-07T01:33:14;18.98;;;13.77;;
66523;SDS011;53350;52.210;5.160;2023-05-07T01:35:45;16.83;;;12.63;;
66523;SDS011;53350;52.210;5.160;2023-05-07T01:38:15;16.65;;;12.32;;
66523;SDS011;53350;52.210;5.160;2023-05-07T01:40:42;16.17;;;13.10;;
66523;SDS011;53350;52.210;5.160;2023-05-07T01:43:09;18.65;;;13.00;;
66523;SDS011;53350;52.210;5.160;2023-05-07T01:45:36;14.75;;;12.90;;
66523;SDS011;53350;52.210;5.160;2023-05-07T01:48:05;16.95;;;13.60;;
66523;SDS011;53350;52.210;5.160;2023-05-07T01:50:32;16.95;;;14.15;;
66523;SDS011;53350;52.210;5.160;2023-05-07T01:55:29;18.77;;;13.52;;
66523;SDS011;53350;52.210;5.160;2023-05-07T01:57:55;17.65;;;13.43;;
66523;SDS011;53350;52.210;5.160;2023-05-07T02:00:22;18.88;;;13.98;;
66523;SDS011;53350;52.210;5.160;2023-05-07T02:02:49;17.52;;;14.80;;
66523;SDS011;53350;52.210;5.160;2023-05-07T02:05:16;19.90;;;13.90;;
66523;SDS011;53350;52.210;5.160;2023-05-07T02:07:43;16.95;;;13.52;;
66523;SDS011;53350;52.210;5.160;2023-05-07T02:10:09;16.48;;;12.23;;
66523;SDS011;53350;52.210;5.160;2023-05-07T02:12:37;15.68;;;11.90;;
66523;SDS011;53350;52.210;5.160;2023-05-07T02:15:04;16.15;;;11.13;;
66523;SDS011;53350;52.210;5.160;2023-05-07T02:17:31;15.32;;;11.82;;
66523;SDS011;53350;52.210;5.160;2023-05-07T02:19:58;15.77;;;10.65;;
66523;SDS011;53350;52.210;5.160;2023-05-07T02:22:24;26.17;;;9.98;;
66523;SDS011;53350;52.210;5.160;2023-05-07T02:24:51;14.65;;;9.68;;
66523;SDS011;53350;52.210;5.160;2023-05-07T02:27:17;15.15;;;10.50;;
66523;SDS011;53350;52.210;5.160;2023-05-07T02:29:45;13.60;;;9.43;;
66523;SDS011;53350;52.210;5.160;2023-05-07T02:32:11;14.05;;;9.65;;
66523;SDS011;53350;52.210;5.160;2023-05-07T02:34:38;13.20;;;9.88;;
66523;SDS011;53350;52.210;5.160;2023-05-07T02:37:04;17.20;;;10.38;;
66523;SDS011;53350;52.210;5.160;2023-05-07T02:39:31;15.55;;;10.50;;
66523;SDS011;53350;52.210;5.160;2023-05-07T02:41:57;13.88;;;10.43;;
66523;SDS011;53350;52.210;5.160;2023-05-07T02:44:23;16.70;;;10.13;;
66523;SDS011;53350;52.210;5.160;2023-05-07T02:46:51;12.95;;;10.20;;
66523;SDS011;53350;52.210;5.160;2023-05-07T02:49:18;16.05;;;10.25;;
66523;SDS011;53350;52.210;5.160;2023-05-07T02:51:44;16.45;;;10.20;;
66523;SDS011;53350;52.210;5.160;2023-05-07T02:54:11;14.07;;;10.85;;
66523;SDS011;53350;52.210;5.160;2023-05-07T02:56:37;14.85;;;10.68;;
66523;SDS011;53350;52.210;5.160;2023-05-07T02:59:04;14.68;;;10.90;;
66523;SDS011;53350;52.210;5.160;2023-05-07T03:01:30;14.73;;;11.02;;
66523;SDS011;53350;52.210;5.160;2023-05-07T03:03:58;14.80;;;11.30;;
66523;SDS011;53350;52.210;5.160;2023-05-07T03:06:24;13.90;;;11.15;;
66523;SDS011;53350;52.210;5.160;2023-05-07T03:08:51;15.63;;;11.45;;
66523;SDS011;53350;52.210;5.160;2023-05-07T03:11:17;16.75;;;11.50;;
66523;SDS011;53350;52.210;5.160;2023-05-07T03:13:44;15.63;;;11.18;;
66523;SDS011;53350;52.210;5.160;2023-05-07T03:16:10;13.52;;;10.80;;
66523;SDS011;53350;52.210;5.160;2023-05-07T03:18:37;15.00;;;11.68;;
66523;SDS011;53350;52.210;5.160;2023-05-07T03:21:04;15.30;;;11.98;;
66523;SDS011;53350;52.210;5.160;2023-05-07T03:23:31;13.98;;;11.30;;
66523;SDS011;53350;52.210;5.160;2023-05-07T03:25:57;17.30;;;12.40;;
66523;SDS011;53350;52.210;5.160;2023-05-07T03:28:23;15.65;;;12.43;;
66523;SDS011;53350;52.210;5.160;2023-05-07T03:30:50;20.77;;;12.63;;
66523;SDS011;53350;52.210;5.160;2023-05-07T03:33:16;16.38;;;12.23;;
66523;SDS011;53350;52.210;5.160;2023-05-07T03:35:43;17.95;;;12.82;;
66523;SDS011;53350;52.210;5.160;2023-05-07T03:38:11;14.57;;;12.55;;
66523;SDS011;53350;52.210;5.160;2023-05-07T03:40:37;17.42;;;13.48;;
66523;SDS011;53350;52.210;5.160;2023-05-07T03:43:04;18.90;;;13.13;;
66523;SDS011;53350;52.210;5.160;2023-05-07T03:45:30;17.15;;;12.82;;
66523;SDS011;53350;52.210;5.160;2023-05-07T03:47:57;19.33;;;13.35;;
66523;SDS011;53350;52.210;5.160;2023-05-07T03:50:23;17.40;;;14.23;;
66523;SDS011;53350;52.210;5.160;2023-05-07T03:52:50;18.05;;;13.57;;
66523;SDS011;53350;52.210;5.160;2023-05-07T03:55:18;20.25;;;14.15;;
66523;SDS011;53350;52.210;5.160;2023-05-07T03:57:44;18.10;;;14.52;;
66523;SDS011;53350;52.210;5.160;2023-05-07T04:00:11;20.42;;;15.07;;
66523;SDS011;53350;52.210;5.160;2023-05-07T04:02:38;17.73;;;14.75;;
66523;SDS011;53350;52.210;5.160;2023-05-07T04:05:05;20.00;;;15.13;;
66523;SDS011;53350;52.210;5.160;2023-05-07T04:07:32;20.58;;;15.32;;
66523;SDS011;53350;52.210;5.160;2023-05-07T04:09:58;20.13;;;15.18;;
66523;SDS011;53350;52.210;5.160;2023-05-07T04:12:26;18.50;;;14.98;;
66523;SDS011;53350;52.210;5.160;2023-05-07T04:14:52;19.88;;;15.90;;
66523;SDS011;53350;52.210;5.160;2023-05-07T04:17:19;21.92;;;14.80;;
66523;SDS011;53350;52.210;5.160;2023-05-07T04:19:45;16.35;;;13.82;;
66523;SDS011;53350;52.210;5.160;2023-05-07T04:22:11;21.55;;;16.10;;
66523;SDS011;53350;52.210;5.160;2023-05-07T04:24:38;20.02;;;14.23;;
66523;SDS011;53350;52.210;5.160;2023-05-07T04:27:04;18.30;;;15.40;;
66523;SDS011;53350;52.210;5.160;2023-05-07T04:29:32;20.98;;;14.98;;
66523;SDS011;53350;52.210;5.160;2023-05-07T04:31:59;24.48;;;15.30;;
66523;SDS011;53350;52.210;5.160;2023-05-07T04:34:25;20.83;;;14.43;;
66523;SDS011;53350;52.210;5.160;2023-05-07T04:36:52;19.77;;;15.43;;
66523;SDS011;53350;52.210;5.160;2023-05-07T04:39:18;16.65;;;14.90;;
66523;SDS011;53350;52.210;5.160;2023-05-07T04:41:44;19.35;;;14.85;;
66523;SDS011;53350;52.210;5.160;2023-05-07T04:44:11;21.20;;;14.95;;
66523;SDS011;53350;52.210;5.160;2023-05-07T04:46:39;19.23;;;14.43;;
66523;SDS011;53350;52.210;5.160;2023-05-07T04:49:05;17.83;;;14.27;;
66523;SDS011;53350;52.210;5.160;2023-05-07T04:51:31;18.20;;;14.50;;
66523;SDS011;53350;52.210;5.160;2023-05-07T04:53:58;18.40;;;14.30;;
66523;SDS011;53350;52.210;5.160;2023-05-07T04:56:27;17.90;;;14.82;;
66523;SDS011;53350;52.210;5.160;2023-05-07T04:58:55;17.30;;;14.52;;
66523;SDS011;53350;52.210;5.160;2023-05-07T05:01:21;20.63;;;14.93;;
66523;SDS011;53350;52.210;5.160;2023-05-07T05:03:49;16.55;;;14.70;;
66523;SDS011;53350;52.210;5.160;2023-05-07T05:06:15;17.20;;;13.73;;
66523;SDS011;53350;52.210;5.160;2023-05-07T05:08:41;17.02;;;13.93;;
66523;SDS011;53350;52.210;5.160;2023-05-07T05:11:08;15.73;;;13.40;;
66523;SDS011;53350;52.210;5.160;2023-05-07T05:13:34;16.30;;;12.70;;
66523;SDS011;53350;52.210;5.160;2023-05-07T05:16:01;17.70;;;13.25;;
66523;SDS011;53350;52.210;5.160;2023-05-07T05:18:27;17.95;;;13.30;;
66523;SDS011;53350;52.210;5.160;2023-05-07T05:20:55;20.08;;;12.70;;
66523;SDS011;53350;52.210;5.160;2023-05-07T05:23:21;14.15;;;11.38;;
66523;SDS011;53350;52.210;5.160;2023-05-07T05:25:48;16.48;;;12.13;;
66523;SDS011;53350;52.210;5.160;2023-05-07T05:28:14;20.70;;;13.20;;
66523;SDS011;53350;52.210;5.160;2023-05-07T05:30:41;22.23;;;14.00;;
66523;SDS011;53350;52.210;5.160;2023-05-07T05:33:07;15.68;;;12.45;;
66523;SDS011;53350;52.210;5.160;2023-05-07T05:35:33;14.32;;;11.63;;
66523;SDS011;53350;52.210;5.160;2023-05-07T05:38:01;15.10;;;11.52;;
66523;SDS011;53350;52.210;5.160;2023-05-07T05:40:28;13.73;;;10.90;;
66523;SDS011;53350;52.210;5.160;2023-05-07T05:42:55;16.00;;;11.55;;
66523;SDS011;53350;52.210;5.160;2023-05-07T05:45:21;14.70;;;11.43;;
66523;SDS011;53350;52.210;5.160;2023-05-07T05:47:47;15.88;;;11.13;;
66523;SDS011;53350;52.210;5.160;2023-05-07T05:50:14;14.80;;;11.95;;
66523;SDS011;53350;52.210;5.160;2023-05-07T05:52:40;15.40;;;12.07;;
66523;SDS011;53350;52.210;5.160;2023-05-07T05:55:08;16.75;;;11.43;;
66523;SDS011;53350;52.210;5.160;2023-05-07T05:57:35;14.73;;;11.63;;
66523;SDS011;53350;52.210;5.160;2023-05-07T06:00:02;12.98;;;10.45;;
66523;SDS011;53350;52.210;5.160;2023-05-07T06:02:29;16.75;;;12.50;;
66523;SDS011;53350;52.210;5.160;2023-05-07T06:04:55;16.02;;;12.20;;
66523;SDS011;53350;52.210;5.160;2023-05-07T06:07:22;17.17;;;13.10;;
66523;SDS011;53350;52.210;5.160;2023-05-07T06:09:48;16.60;;;13.35;;
66523;SDS011;53350;52.210;5.160;2023-05-07T06:12:16;19.77;;;13.95;;
66523;SDS011;53350;52.210;5.160;2023-05-07T06:14:42;16.15;;;13.70;;
66523;SDS011;53350;52.210;5.160;2023-05-07T06:17:09;16.15;;;13.75;;
66523;SDS011;53350;52.210;5.160;2023-05-07T06:19:35;17.63;;;14.23;;
66523;SDS011;53350;52.210;5.160;2023-05-07T06:22:02;18.35;;;13.70;;
66523;SDS011;53350;52.210;5.160;2023-05-07T06:24:28;18.13;;;14.13;;
66523;SDS011;53350;52.210;5.160;2023-05-07T06:26:55;23.42;;;15.40;;
66523;SDS011;53350;52.210;5.160;2023-05-07T06:29:24;20.42;;;15.15;;
66523;SDS011;53350;52.210;5.160;2023-05-07T06:31:51;19.25;;;14.30;;
66523;SDS011;53350;52.210;5.160;2023-05-07T06:34:18;18.67;;;14.80;;
66523;SDS011;53350;52.210;5.160;2023-05-07T06:36:44;18.83;;;14.00;;
66523;SDS011;53350;52.210;5.160;2023-05-07T06:39:11;19.45;;;14.80;;
66523;SDS011;53350;52.210;5.160;2023-05-07T06:41:37;20.60;;;15.63;;
66523;SDS011;53350;52.210;5.160;2023-05-07T06:44:04;19.70;;;15.68;;
66523;SDS011;53350;52.210;5.160;2023-05-07T06:46:32;20.17;;;14.52;;
66523;SDS011;53350;52.210;5.160;2023-05-07T06:48:58;18.48;;;14.75;;
66523;SDS011;53350;52.210;5.160;2023-05-07T06:51:25;19.80;;;15.55;;
66523;SDS011;53350;52.210;5.160;2023-05-07T06:53:51;22.63;;;15.52;;
66523;SDS011;53350;52.210;5.160;2023-05-07T06:56:18;18.98;;;15.20;;
66523;SDS011;53350;52.210;5.160;2023-05-07T06:58:44;22.45;;;15.88;;
66523;SDS011;53350;52.210;5.160;2023-05-07T07:01:11;21.85;;;16.17;;
66523;SDS011;53350;52.210;5.160;2023-05-07T07:03:39;21.88;;;15.30;;
66523;SDS011;53350;52.210;5.160;2023-05-07T07:06:05;20.52;;;14.88;;
66523;SDS011;53350;52.210;5.160;2023-05-07T07:08:32;19.48;;;15.65;;
66523;SDS011;53350;52.210;5.160;2023-05-07T07:10:59;18.30;;;16.10;;
66523;SDS011;53350;52.210;5.160;2023-05-07T07:13:25;18.70;;;16.67;;
66523;SDS011;53350;52.210;5.160;2023-05-07T07:15:52;21.02;;;15.57;;
66523;SDS011;53350;52.210;5.160;2023-05-07T07:18:18;16.95;;;14.43;;
66523;SDS011;53350;52.210;5.160;2023-05-07T07:20:46;20.98;;;16.17;;
66523;SDS011;53350;52.210;5.160;2023-05-07T07:23:13;21.08;;;15.60;;
66523;SDS011;53350;52.210;5.160;2023-05-07T07:25:39;19.00;;;15.43;;
66523;SDS011;53350;52.210;5.160;2023-05-07T07:28:06;26.60;;;17.27;;
66523;SDS011;53350;52.210;5.160;2023-05-07T07:30:32;23.38;;;16.83;;
66523;SDS011;53350;52.210;5.160;2023-05-07T07:32:59;20.55;;;16.33;;
66523;SDS011;53350;52.210;5.160;2023-05-07T07:35:27;19.55;;;16.13;;
66523;SDS011;53350;52.210;5.160;2023-05-07T07:37:55;19.42;;;16.55;;
66523;SDS011;53350;52.210;5.160;2023-05-07T07:40:21;18.52;;;16.45;;
66523;SDS011;53350;52.210;5.160;2023-05-07T07:42:48;22.98;;;16.70;;
66523;SDS011;53350;52.210;5.160;2023-05-07T07:45:14;19.50;;;15.27;;
66523;SDS011;53350;52.210;5.160;2023-05-07T07:47:41;18.35;;;16.33;;
66523;SDS011;53350;52.210;5.160;2023-05-07T07:50:08;19.30;;;15.80;;
66523;SDS011;53350;52.210;5.160;2023-05-07T07:52:35;17.50;;;15.57;;
66523;SDS011;53350;52.210;5.160;2023-05-07T07:55:03;19.67;;;15.57;;
66523;SDS011;53350;52.210;5.160;2023-05-07T07:57:30;20.00;;;15.90;;
66523;SDS011;53350;52.210;5.160;2023-05-07T07:59:57;21.88;;;15.77;;
66523;SDS011;53350;52.210;5.160;2023-05-07T08:02:23;23.30;;;17.80;;
66523;SDS011;53350;52.210;5.160;2023-05-07T08:04:50;21.75;;;18.05;;
66523;SDS011;53350;52.210;5.160;2023-05-07T08:07:16;18.92;;;16.33;;
66523;SDS011;53350;52.210;5.160;2023-05-07T08:09:45;18.02;;;15.10;;
66523;SDS011;53350;52.210;5.160;2023-05-07T08:12:13;19.10;;;16.58;;
66523;SDS011;53350;52.210;5.160;2023-05-07T08:14:39;21.75;;;16.17;;
66523;SDS011;53350;52.210;5.160;2023-05-07T08:17:06;22.17;;;16.30;;
66523;SDS011;53350;52.210;5.160;2023-05-07T08:19:34;20.25;;;16.95;;
66523;SDS011;53350;52.210;5.160;2023-05-07T08:22:01;22.48;;;17.48;;
66523;SDS011;53350;52.210;5.160;2023-05-07T08:24:29;18.75;;;15.80;;
66523;SDS011;53350;52.210;5.160;2023-05-07T08:26:55;21.08;;;17.30;;
66523;SDS011;53350;52.210;5.160;2023-05-07T08:29:23;22.13;;;17.33;;
66523;SDS011;53350;52.210;5.160;2023-05-07T08:31:49;20.40;;;17.50;;
66523;SDS011;53350;52.210;5.160;2023-05-07T08:34:16;17.95;;;16.10;;
66523;SDS011;53350;52.210;5.160;2023-05-07T08:36:42;20.35;;;16.67;;
66523;SDS011;53350;52.210;5.160;2023-05-07T08:39:09;20.20;;;16.92;;
66523;SDS011;53350;52.210;5.160;2023-05-07T08:41:35;19.45;;;16.08;;
66523;SDS011;53350;52.210;5.160;2023-05-07T08:44:02;24.63;;;17.30;;
66523;SDS011;53350;52.210;5.160;2023-05-07T08:46:32;20.10;;;17.85;;
66523;SDS011;53350;52.210;5.160;2023-05-07T08:49:00;18.58;;;15.65;;
66523;SDS011;53350;52.210;5.160;2023-05-07T08:51:26;19.92;;;16.02;;
66523;SDS011;53350;52.210;5.160;2023-05-07T08:53:53;17.23;;;14.05;;
66523;SDS011;53350;52.210;5.160;2023-05-07T08:56:19;18.15;;;15.13;;
66523;SDS011;53350;52.210;5.160;2023-05-07T08:58:47;16.27;;;13.35;;
66523;SDS011;53350;52.210;5.160;2023-05-07T09:01:16;17.33;;;15.38;;
66523;SDS011;53350;52.210;5.160;2023-05-07T09:03:45;14.45;;;12.50;;
66523;SDS011;53350;52.210;5.160;2023-05-07T09:06:12;14.85;;;12.13;;
66523;SDS011;53350;52.210;5.160;2023-05-07T09:08:39;17.80;;;12.32;;
66523;SDS011;53350;52.210;5.160;2023-05-07T09:11:05;15.90;;;12.80;;
66523;SDS011;53350;52.210;5.160;2023-05-07T09:13:32;15.05;;;12.25;;
66523;SDS011;53350;52.210;5.160;2023-05-07T09:15:58;15.13;;;12.05;;
66523;SDS011;53350;52.210;5.160;2023-05-07T09:18:35;17.52;;;11.30;;
66523;SDS011;53350;52.210;5.160;2023-05-07T09:21:10;13.80;;;11.00;;
66523;SDS011;53350;52.210;5.160;2023-05-07T09:23:37;14.98;;;11.45;;
66523;SDS011;53350;52.210;5.160;2023-05-07T09:26:04;16.15;;;12.68;;
66523;SDS011;53350;52.210;5.160;2023-05-07T09:28:33;14.20;;;11.32;;
66523;SDS011;53350;52.210;5.160;2023-05-07T09:31:00;12.63;;;10.10;;
66523;SDS011;53350;52.210;5.160;2023-05-07T09:33:27;12.43;;;10.10;;
66523;SDS011;53350;52.210;5.160;2023-05-07T09:35:53;12.40;;;10.13;;
66523;SDS011;53350;52.210;5.160;2023-05-07T09:38:21;12.35;;;10.40;;
66523;SDS011;53350;52.210;5.160;2023-05-07T09:40:47;12.52;;;10.40;;
66523;SDS011;53350;52.210;5.160;2023-05-07T09:43:31;15.00;;;10.55;;
66523;SDS011;53350;52.210;5.160;2023-05-07T09:45:58;14.70;;;10.15;;
66523;SDS011;53350;52.210;5.160;2023-05-07T09:48:28;12.23;;;9.45;;
66523;SDS011;53350;52.210;5.160;2023-05-07T09:50:56;13.63;;;9.05;;
66523;SDS011;53350;52.210;5.160;2023-05-07T09:53:29;13.52;;;9.75;;
66523;SDS011;53350;52.210;5.160;2023-05-07T09:55:57;12.18;;;9.88;;
66523;SDS011;53350;52.210;5.160;2023-05-07T09:58:25;13.65;;;10.25;;
66523;SDS011;53350;52.210;5.160;2023-05-07T10:00:52;12.23;;;9.48;;
66523;SDS011;53350;52.210;5.160;2023-05-07T10:03:19;11.18;;;8.63;;
66523;SDS011;53350;52.210;5.160;2023-05-07T10:05:47;10.15;;;8.00;;
66523;SDS011;53350;52.210;5.160;2023-05-07T10:08:15;10.83;;;8.03;;
66523;SDS011;53350;52.210;5.160;2023-05-07T10:10:43;14.35;;;9.02;;
66523;SDS011;53350;52.210;5.160;2023-05-07T10:13:10;11.63;;;8.85;;
66523;SDS011;53350;52.210;5.160;2023-05-07T10:15:37;12.77;;;8.27;;
66523;SDS011;53350;52.210;5.160;2023-05-07T10:18:04;14.60;;;8.23;;
66523;SDS011;53350;52.210;5.160;2023-05-07T10:20:32;14.02;;;8.88;;
66523;SDS011;53350;52.210;5.160;2023-05-07T10:22:59;15.13;;;8.45;;
66523;SDS011;53350;52.210;5.160;2023-05-07T10:25:30;12.65;;;8.27;;
66523;SDS011;53350;52.210;5.160;2023-05-07T10:27:59;16.42;;;8.00;;
66523;SDS011;53350;52.210;5.160;2023-05-07T10:30:33;10.82;;;7.63;;
66523;SDS011;53350;52.210;5.160;2023-05-07T10:33:06;11.68;;;8.40;;
66523;SDS011;53350;52.210;5.160;2023-05-07T10:35:37;13.35;;;7.55;;
66523;SDS011;53350;52.210;5.160;2023-05-07T10:38:06;11.85;;;8.60;;
66523;SDS011;53350;52.210;5.160;2023-05-07T10:40:33;11.93;;;8.93;;
66523;SDS011;53350;52.210;5.160;2023-05-07T10:43:02;14.15;;;9.88;;
66523;SDS011;53350;52.210;5.160;2023-05-07T10:45:30;13.55;;;9.50;;
66523;SDS011;53350;52.210;5.160;2023-05-07T10:48:07;14.75;;;10.10;;
66523;SDS011;53350;52.210;5.160;2023-05-07T10:50:35;12.38;;;9.57;;
66523;SDS011;53350;52.210;5.160;2023-05-07T10:53:20;15.95;;;8.80;;
66523;SDS011;53350;52.210;5.160;2023-05-07T10:58:53;13.02;;;7.70;;
66523;SDS011;53350;52.210;5.160;2023-05-07T11:04:16;11.82;;;6.95;;
66523;SDS011;53350;52.210;5.160;2023-05-07T11:10:01;7.30;;;4.28;;
66523;SDS011;53350;52.210;5.160;2023-05-07T11:18:03;12.25;;;3.28;;
66523;SDS011;53350;52.210;5.160;2023-05-07T11:20:45;7.80;;;2.97;;
66523;SDS011;53350;52.210;5.160;2023-05-07T11:26:24;8.30;;;3.60;;
66523;SDS011;53350;52.210;5.160;2023-05-07T11:28:51;8.37;;;3.40;;
66523;SDS011;53350;52.210;5.160;2023-05-07T11:31:21;7.45;;;3.58;;
66523;SDS011;53350;52.210;5.160;2023-05-07T11:33:49;10.50;;;4.10;;
66523;SDS011;53350;52.210;5.160;2023-05-07T11:36:16;10.38;;;4.10;;
66523;SDS011;53350;52.210;5.160;2023-05-07T11:38:44;9.15;;;4.20;;
66523;SDS011;53350;52.210;5.160;2023-05-07T11:41:10;9.02;;;3.33;;
66523;SDS011;53350;52.210;5.160;2023-05-07T11:43:37;8.57;;;3.70;;
66523;SDS011;53350;52.210;5.160;2023-05-07T11:48:33;9.57;;;3.00;;
66523;SDS011;53350;52.210;5.160;2023-05-07T11:53:27;8.05;;;3.20;;
66523;SDS011;53350;52.210;5.160;2023-05-07T11:55:54;7.55;;;2.80;;
66523;SDS011;53350;52.210;5.160;2023-05-07T11:58:22;8.55;;;2.90;;
66523;SDS011;53350;52.210;5.160;2023-05-07T12:00:50;7.25;;;2.70;;
66523;SDS011;53350;52.210;5.160;2023-05-07T12:03:17;8.75;;;3.10;;
66523;SDS011;53350;52.210;5.160;2023-05-07T12:05:45;6.78;;;2.65;;
66523;SDS011;53350;52.210;5.160;2023-05-07T12:08:13;8.07;;;2.60;;
66523;SDS011;53350;52.210;5.160;2023-05-07T12:10:40;7.95;;;2.60;;
66523;SDS011;53350;52.210;5.160;2023-05-07T12:13:13;7.18;;;2.90;;
66523;SDS011;53350;52.210;5.160;2023-05-07T12:15:40;9.80;;;4.25;;
66523;SDS011;53350;52.210;5.160;2023-05-07T12:18:06;7.38;;;3.03;;
66523;SDS011;53350;52.210;5.160;2023-05-07T12:20:33;7.35;;;3.08;;
66523;SDS011;53350;52.210;5.160;2023-05-07T12:23:02;8.20;;;3.03;;
66523;SDS011;53350;52.210;5.160;2023-05-07T12:25:29;7.13;;;3.20;;
66523;SDS011;53350;52.210;5.160;2023-05-07T12:27:56;9.82;;;4.00;;
66523;SDS011;53350;52.210;5.160;2023-05-07T12:30:23;7.68;;;3.72;;
66523;SDS011;53350;52.210;5.160;2023-05-07T12:32:52;9.52;;;3.78;;
66523;SDS011;53350;52.210;5.160;2023-05-07T12:35:25;8.68;;;3.42;;
66523;SDS011;53350;52.210;5.160;2023-05-07T12:37:54;9.82;;;3.78;;
66523;SDS011;53350;52.210;5.160;2023-05-07T12:40:22;8.93;;;3.38;;
66523;SDS011;53350;52.210;5.160;2023-05-07T12:45:18;10.02;;;3.92;;
66523;SDS011;53350;52.210;5.160;2023-05-07T12:47:45;9.85;;;4.45;;
66523;SDS011;53350;52.210;5.160;2023-05-07T12:50:12;9.50;;;4.50;;
66523;SDS011;53350;52.210;5.160;2023-05-07T12:52:39;8.32;;;4.40;;
66523;SDS011;53350;52.210;5.160;2023-05-07T12:55:05;9.88;;;4.60;;
66523;SDS011;53350;52.210;5.160;2023-05-07T12:57:38;10.20;;;4.28;;
66523;SDS011;53350;52.210;5.160;2023-05-07T13:00:06;6.50;;;3.55;;
66523;SDS011;53350;52.210;5.160;2023-05-07T13:05:00;23.25;;;4.43;;
66523;SDS011;53350;52.210;5.160;2023-05-07T13:07:27;10.98;;;4.30;;
66523;SDS011;53350;52.210;5.160;2023-05-07T13:09:53;11.57;;;4.07;;
66523;SDS011;53350;52.210;5.160;2023-05-07T13:12:20;7.78;;;4.00;;
66523;SDS011;53350;52.210;5.160;2023-05-07T13:14:48;8.88;;;4.13;;
66523;SDS011;53350;52.210;5.160;2023-05-07T13:17:14;9.85;;;3.88;;
66523;SDS011;53350;52.210;5.160;2023-05-07T13:19:40;12.75;;;4.47;;
66523;SDS011;53350;52.210;5.160;2023-05-07T13:22:07;9.90;;;3.60;;
66523;SDS011;53350;52.210;5.160;2023-05-07T13:24:33;13.32;;;4.22;;
66523;SDS011;53350;52.210;5.160;2023-05-07T13:27:00;10.60;;;4.03;;
66523;SDS011;53350;52.210;5.160;2023-05-07T13:29:26;12.00;;;3.97;;
66523;SDS011;53350;52.210;5.160;2023-05-07T13:31:56;11.27;;;4.65;;
66523;SDS011;53350;52.210;5.160;2023-05-07T13:34:23;9.93;;;5.22;;
66523;SDS011;53350;52.210;5.160;2023-05-07T13:36:49;9.30;;;4.60;;
66523;SDS011;53350;52.210;5.160;2023-05-07T13:39:16;12.00;;;5.68;;
66523;SDS011;53350;52.210;5.160;2023-05-07T13:41:42;11.40;;;6.53;;
66523;SDS011;53350;52.210;5.160;2023-05-07T13:44:09;12.82;;;6.70;;
66523;SDS011;53350;52.210;5.160;2023-05-07T13:46:36;9.97;;;5.90;;
66523;SDS011;53350;52.210;5.160;2023-05-07T13:49:04;10.68;;;6.22;;
66523;SDS011;53350;52.210;5.160;2023-05-07T13:51:30;13.02;;;7.75;;
66523;SDS011;53350;52.210;5.160;2023-05-07T13:53:57;14.25;;;8.13;;
66523;SDS011;53350;52.210;5.160;2023-05-07T13:56:23;12.77;;;8.52;;
66523;SDS011;53350;52.210;5.160;2023-05-07T13:58:50;13.52;;;8.40;;
66523;SDS011;53350;52.210;5.160;2023-05-07T14:01:16;10.60;;;8.10;;
66523;SDS011;53350;52.210;5.160;2023-05-07T14:03:42;13.70;;;7.65;;
66523;SDS011;53350;52.210;5.160;2023-05-07T14:06:10;14.02;;;7.80;;
66523;SDS011;53350;52.210;5.160;2023-05-07T14:08:37;13.07;;;8.07;;
66523;SDS011;53350;52.210;5.160;2023-05-07T14:11:03;14.05;;;7.95;;
66523;SDS011;53350;52.210;5.160;2023-05-07T14:13:30;13.82;;;7.43;;
66523;SDS011;53350;52.210;5.160;2023-05-07T14:15:56;11.73;;;6.97;;
66523;SDS011;53350;52.210;5.160;2023-05-07T14:18:23;10.00;;;5.82;;
66523;SDS011;53350;52.210;5.160;2023-05-07T14:20:49;12.70;;;5.90;;
66523;SDS011;53350;52.210;5.160;2023-05-07T14:23:17;12.25;;;6.43;;
66523;SDS011;53350;52.210;5.160;2023-05-07T14:25:44;12.65;;;5.93;;
66523;SDS011;53350;52.210;5.160;2023-05-07T14:30:38;11.98;;;7.85;;
66523;SDS011;53350;52.210;5.160;2023-05-07T14:33:05;14.57;;;8.32;;
66523;SDS011;53350;52.210;5.160;2023-05-07T14:35:31;14.07;;;5.50;;
66523;SDS011;53350;52.210;5.160;2023-05-07T14:37:58;9.50;;;3.38;;
66523;SDS011;53350;52.210;5.160;2023-05-07T14:40:26;12.05;;;2.78;;
66523;SDS011;53350;52.210;5.160;2023-05-07T14:42:52;13.15;;;2.75;;
66523;SDS011;53350;52.210;5.160;2023-05-07T14:45:20;8.13;;;2.72;;
66523;SDS011;53350;52.210;5.160;2023-05-07T14:47:46;14.43;;;4.30;;
66523;SDS011;53350;52.210;5.160;2023-05-07T14:50:13;12.20;;;5.13;;
66523;SDS011;53350;52.210;5.160;2023-05-07T14:52:39;11.35;;;6.10;;
66523;SDS011;53350;52.210;5.160;2023-05-07T14:55:06;24.52;;;7.65;;
66523;SDS011;53350;52.210;5.160;2023-05-07T14:57:34;17.83;;;10.35;;
66523;SDS011;53350;52.210;5.160;2023-05-07T15:00:01;19.70;;;10.40;;
66523;SDS011;53350;52.210;5.160;2023-05-07T15:04:55;15.10;;;8.18;;